sensor_id;sensor_type;location;lat;lon;timestamp;pressure;altitude;pressure_sealevel;temperature;humidity
39223;BME280;24936;46.328;11.026;2024-03-23T00:56:14;94111.00;;;3.74;100.00
39223;BME280;24936;46.328;11.026;2024-03-23T00:58:39;94104.69;;;4.03;100.00
39223;BME280;24936;46.328;11.026;2024-03-23T01:01:05;94099.72;;;4.48;100.00
39223;BME280;24936;46.328;11.026;2024-03-23T01:03:30;94092.91;;;4.10;100.00
39223;BME280;24936;46.328;11.026;2024-03-23T01:06:00;94092.59;;;4.02;100.00
39223;BME280;24936;46.328;11.026;2024-03-23T01:08:25;94088.97;;;4.28;100.00
39223;BME280;24936;46.328;11.026;2024-03-23T01:11:00;94087.31;;;4.03;100.00
39223;BME280;24936;46.328;11.026;2024-03-23T01:13:27;94081.31;;;4.14;100.00
39223;BME280;24936;46.328;11.026;2024-03-23T01:15:53;94080.16;;;4.18;100.00
39223;BME280;24936;46.328;11.026;2024-03-23T01:18:19;94087.78;;;4.08;100.00
39223;BME280;24936;46.328;11.026;2024-03-23T01:20:45;94085.94;;;3.97;100.00
39223;BME280;24936;46.328;11.026;2024-03-23T01:23:10;94079.88;;;4.10;100.00
39223;BME280;24936;46.328;11.026;2024-03-23T01:25:35;94082.16;;;4.15;100.00
39223;BME280;24936;46.328;11.026;2024-03-23T01:28:01;94076.88;;;4.27;100.00
39223;BME280;24936;46.328;11.026;2024-03-23T01:30:26;94076.44;;;4.34;100.00
39223;BME280;24936;46.328;11.026;2024-03-23T01:32:52;94082.38;;;4.36;100.00
39223;BME280;24936;46.328;11.026;2024-03-23T01:35:17;94088.34;;;4.25;100.00
39223;BME280;24936;46.328;11.026;2024-03-23T01:37:42;94080.50;;;4.01;100.00
39223;BME280;24936;46.328;11.026;2024-03-23T01:40:08;94072.59;;;4.51;100.00
39223;BME280;24936;46.328;11.026;2024-03-23T01:42:34;94071.44;;;4.31;100.00
39223;BME280;24936;46.328;11.026;2024-03-23T01:44:59;94075.38;;;4.72;100.00
39223;BME280;24936;46.328;11.026;2024-03-23T01:47:25;94082.88;;;4.77;100.00
39223;BME280;24936;46.328;11.026;2024-03-23T01:49:50;94082.97;;;4.15;100.00
39223;BME280;24936;46.328;11.026;2024-03-23T01:52:17;94077.81;;;4.02;100.00
39223;BME280;24936;46.328;11.026;2024-03-23T01:54:43;94073.63;;;3.75;100.00
39223;BME280;24936;46.328;11.026;2024-03-23T01:57:10;94070.66;;;3.56;100.00
39223;BME280;24936;46.328;11.026;2024-03-23T01:59:35;94063.78;;;3.42;100.00
39223;BME280;24936;46.328;11.026;2024-03-23T02:02:01;94060.03;;;3.46;100.00
39223;BME280;24936;46.328;11.026;2024-03-23T02:04:26;94047.97;;;3.45;100.00
39223;BME280;24936;46.328;11.026;2024-03-23T02:06:51;94049.53;;;3.47;100.00
39223;BME280;24936;46.328;11.026;2024-03-23T02:09:17;94046.28;;;3.57;100.00
39223;BME280;24936;46.328;11.026;2024-03-23T02:11:42;94042.28;;;3.77;100.00
39223;BME280;24936;46.328;11.026;2024-03-23T02:14:08;94045.31;;;3.71;100.00
39223;BME280;24936;46.328;11.026;2024-03-23T02:16:33;94044.81;;;3.65;100.00
39223;BME280;24936;46.328;11.026;2024-03-23T02:18:58;94041.91;;;3.57;100.00
39223;BME280;24936;46.328;11.026;2024-03-23T02:21:24;94036.13;;;3.41;100.00
39223;BME280;24936;46.328;11.026;2024-03-23T02:23:49;94033.66;;;3.26;100.00
39223;BME280;24936;46.328;11.026;2024-03-23T02:26:15;94026.53;;;3.54;100.00
39223;BME280;24936;46.328;11.026;2024-03-23T02:28:40;94019.94;;;3.61;100.00
39223;BME280;24936;46.328;11.026;2024-03-23T02:31:06;94021.63;;;3.49;100.00
39223;BME280;24936;46.328;11.026;2024-03-23T02:33:31;94017.19;;;3.39;100.00
39223;BME280;24936;46.328;11.026;2024-03-23T02:35:58;94010.41;;;3.36;100.00
39223;BME280;24936;46.328;11.026;2024-03-23T02:38:23;94015.44;;;3.63;100.00
39223;BME280;24936;46.328;11.026;2024-03-23T02:40:49;94001.66;;;3.50;100.00
39223;BME280;24936;46.328;11.026;2024-03-23T02:43:14;94007.09;;;3.34;100.00
39223;BME280;24936;46.328;11.026;2024-03-23T02:45:40;93988.69;;;3.24;100.00
39223;BME280;24936;46.328;11.026;2024-03-23T02:48:05;93987.88;;;3.11;100.00
39223;BME280;24936;46.328;11.026;2024-03-23T02:50:31;93972.06;;;3.14;100.00
39223;BME280;24936;46.328;11.026;2024-03-23T02:52:56;93983.09;;;3.17;100.00
39223;BME280;24936;46.328;11.026;2024-03-23T02:55:21;93974.78;;;3.12;100.00
39223;BME280;24936;46.328;11.026;2024-03-23T02:57:47;93965.63;;;3.44;100.00
39223;BME280;24936;46.328;11.026;2024-03-23T03:00:12;93977.44;;;3.36;100.00
39223;BME280;24936;46.328;11.026;2024-03-23T03:02:38;93971.25;;;3.13;100.00
39223;BME280;24936;46.328;11.026;2024-03-23T03:05:04;93971.56;;;3.09;100.00
39223;BME280;24936;46.328;11.026;2024-03-23T03:07:31;93967.28;;;3.08;100.00
39223;BME280;24936;46.328;11.026;2024-03-23T03:09:56;93964.75;;;3.32;100.00
39223;BME280;24936;46.328;11.026;2024-03-23T03:12:22;93969.16;;;3.05;100.00
39223;BME280;24936;46.328;11.026;2024-03-23T03:14:47;93954.81;;;2.87;100.00
39223;BME280;24936;46.328;11.026;2024-03-23T03:17:13;93950.88;;;2.94;100.00
39223;BME280;24936;46.328;11.026;2024-03-23T03:19:40;93946.28;;;3.11;100.00
39223;BME280;24936;46.328;11.026;2024-03-23T03:22:05;93938.97;;;3.16;100.00
39223;BME280;24936;46.328;11.026;2024-03-23T03:24:30;93943.34;;;3.15;100.00
39223;BME280;24936;46.328;11.026;2024-03-23T03:26:56;93933.69;;;3.04;100.00
39223;BME280;24936;46.328;11.026;2024-03-23T03:29:22;93918.31;;;3.01;100.00
39223;BME280;24936;46.328;11.026;2024-03-23T03:31:48;93905.81;;;3.19;100.00
39223;BME280;24936;46.328;11.026;2024-03-23T03:34:15;93913.47;;;3.21;100.00
39223;BME280;24936;46.328;11.026;2024-03-23T03:36:40;93912.56;;;3.46;100.00
39223;BME280;24936;46.328;11.026;2024-03-23T03:39:06;93921.06;;;3.48;100.00
39223;BME280;24936;46.328;11.026;2024-03-23T03:41:32;93920.53;;;3.56;100.00
39223;BME280;24936;46.328;11.026;2024-03-23T03:43:58;93932.72;;;3.56;100.00
39223;BME280;24936;46.328;11.026;2024-03-23T03:46:27;93922.66;;;3.51;100.00
39223;BME280;24936;46.328;11.026;2024-03-23T03:48:54;93925.13;;;3.52;100.00
39223;BME280;24936;46.328;11.026;2024-03-23T03:51:19;93922.19;;;3.57;100.00
39223;BME280;24936;46.328;11.026;2024-03-23T03:53:45;93922.44;;;3.54;100.00
39223;BME280;24936;46.328;11.026;2024-03-23T03:56:10;93919.53;;;3.46;100.00
39223;BME280;24936;46.328;11.026;2024-03-23T03:58:35;93911.28;;;3.52;100.00
39223;BME280;24936;46.328;11.026;2024-03-23T04:01:01;93918.03;;;3.55;100.00
39223;BME280;24936;46.328;11.026;2024-03-23T04:03:26;93912.31;;;3.74;100.00
39223;BME280;24936;46.328;11.026;2024-03-23T04:05:55;93908.44;;;3.79;100.00
39223;BME280;24936;46.328;11.026;2024-03-23T04:08:21;93912.28;;;3.87;100.00
39223;BME280;24936;46.328;11.026;2024-03-23T04:10:46;93914.00;;;3.75;100.00
39223;BME280;24936;46.328;11.026;2024-03-23T04:13:13;93901.44;;;3.69;100.00
39223;BME280;24936;46.328;11.026;2024-03-23T04:15:39;93901.81;;;3.51;100.00
39223;BME280;24936;46.328;11.026;2024-03-23T04:18:04;93906.81;;;3.54;100.00
39223;BME280;24936;46.328;11.026;2024-03-23T04:20:30;93902.03;;;3.48;100.00
39223;BME280;24936;46.328;11.026;2024-03-23T04:22:55;93903.06;;;3.70;100.00
39223;BME280;24936;46.328;11.026;2024-03-23T04:25:21;93896.72;;;3.74;100.00
39223;BME280;24936;46.328;11.026;2024-03-23T04:27:46;93893.09;;;3.52;100.00
39223;BME280;24936;46.328;11.026;2024-03-23T04:30:12;93886.97;;;3.16;100.00
39223;BME280;24936;46.328;11.026;2024-03-23T04:32:38;93877.41;;;3.16;100.00
39223;BME280;24936;46.328;11.026;2024-03-23T04:35:04;93873.91;;;3.04;100.00
39223;BME280;24936;46.328;11.026;2024-03-23T04:37:37;93866.63;;;2.97;100.00
39223;BME280;24936;46.328;11.026;2024-03-23T04:40:03;93858.50;;;3.01;100.00
39223;BME280;24936;46.328;11.026;2024-03-23T04:42:29;93864.38;;;2.92;100.00
39223;BME280;24936;46.328;11.026;2024-03-23T04:44:55;93866.97;;;2.92;100.00
39223;BME280;24936;46.328;11.026;2024-03-23T04:47:21;93862.81;;;2.89;100.00
39223;BME280;24936;46.328;11.026;2024-03-23T04:49:46;93852.75;;;2.85;100.00
39223;BME280;24936;46.328;11.026;2024-03-23T04:52:12;93850.97;;;2.85;100.00
39223;BME280;24936;46.328;11.026;2024-03-23T04:54:37;93857.75;;;2.75;100.00
39223;BME280;24936;46.328;11.026;2024-03-23T04:57:03;93854.16;;;3.02;100.00
39223;BME280;24936;46.328;11.026;2024-03-23T04:59:28;93852.44;;;3.14;100.00
39223;BME280;24936;46.328;11.026;2024-03-23T05:01:54;93857.63;;;2.89;100.00
39223;BME280;24936;46.328;11.026;2024-03-23T05:04:19;93849.84;;;2.77;100.00
39223;BME280;24936;46.328;11.026;2024-03-23T05:06:44;93846.16;;;2.92;100.00
39223;BME280;24936;46.328;11.026;2024-03-23T05:09:10;93843.91;;;2.87;100.00
39223;BME280;24936;46.328;11.026;2024-03-23T05:11:38;93843.59;;;2.79;100.00
39223;BME280;24936;46.328;11.026;2024-03-23T05:14:04;93841.09;;;2.78;100.00
39223;BME280;24936;46.328;11.026;2024-03-23T05:16:29;93826.78;;;2.72;100.00
39223;BME280;24936;46.328;11.026;2024-03-23T05:18:54;93822.31;;;2.74;100.00
39223;BME280;24936;46.328;11.026;2024-03-23T05:21:20;93801.25;;;3.14;100.00
39223;BME280;24936;46.328;11.026;2024-03-23T05:23:45;93810.50;;;2.94;100.00
39223;BME280;24936;46.328;11.026;2024-03-23T05:26:11;93802.25;;;2.76;100.00
39223;BME280;24936;46.328;11.026;2024-03-23T05:28:36;93797.38;;;2.71;100.00
39223;BME280;24936;46.328;11.026;2024-03-23T05:31:02;93791.13;;;2.74;100.00
39223;BME280;24936;46.328;11.026;2024-03-23T05:33:27;93791.19;;;2.85;100.00
39223;BME280;24936;46.328;11.026;2024-03-23T05:35:57;93790.13;;;3.12;100.00
39223;BME280;24936;46.328;11.026;2024-03-23T05:38:22;93794.16;;;3.41;100.00
39223;BME280;24936;46.328;11.026;2024-03-23T05:40:58;93803.75;;;3.16;100.00
39223;BME280;24936;46.328;11.026;2024-03-23T05:43:24;93796.56;;;3.19;100.00
39223;BME280;24936;46.328;11.026;2024-03-23T05:45:57;93790.00;;;3.14;100.00
39223;BME280;24936;46.328;11.026;2024-03-23T05:48:24;93787.75;;;3.33;100.00
39223;BME280;24936;46.328;11.026;2024-03-23T05:50:50;93785.72;;;3.73;100.00
39223;BME280;24936;46.328;11.026;2024-03-23T05:53:16;93791.19;;;3.81;100.00
39223;BME280;24936;46.328;11.026;2024-03-23T05:55:42;93788.72;;;3.91;100.00
39223;BME280;24936;46.328;11.026;2024-03-23T05:58:07;93791.44;;;4.01;100.00
39223;BME280;24936;46.328;11.026;2024-03-23T06:00:33;93780.44;;;4.08;100.00
39223;BME280;24936;46.328;11.026;2024-03-23T06:02:58;93784.97;;;4.18;100.00
39223;BME280;24936;46.328;11.026;2024-03-23T06:05:24;93777.75;;;4.33;100.00
39223;BME280;24936;46.328;11.026;2024-03-23T06:07:49;93788.88;;;4.46;100.00
39223;BME280;24936;46.328;11.026;2024-03-23T06:10:15;93791.25;;;4.61;100.00
39223;BME280;24936;46.328;11.026;2024-03-23T06:12:41;93791.47;;;4.80;100.00
39223;BME280;24936;46.328;11.026;2024-03-23T06:15:07;93787.41;;;4.87;100.00
39223;BME280;24936;46.328;11.026;2024-03-23T06:17:39;93800.56;;;5.30;100.00
39223;BME280;24936;46.328;11.026;2024-03-23T06:20:05;93809.56;;;5.58;100.00
39223;BME280;24936;46.328;11.026;2024-03-23T06:22:33;93811.84;;;5.63;100.00
39223;BME280;24936;46.328;11.026;2024-03-23T06:24:59;93815.72;;;5.69;100.00
39223;BME280;24936;46.328;11.026;2024-03-23T06:27:24;93803.31;;;5.82;100.00
39223;BME280;24936;46.328;11.026;2024-03-23T06:29:49;93808.84;;;5.89;100.00
39223;BME280;24936;46.328;11.026;2024-03-23T06:32:15;93809.44;;;6.14;100.00
39223;BME280;24936;46.328;11.026;2024-03-23T06:34:44;93807.78;;;6.12;100.00
39223;BME280;24936;46.328;11.026;2024-03-23T06:37:10;93823.06;;;6.17;100.00
39223;BME280;24936;46.328;11.026;2024-03-23T06:39:38;93817.09;;;6.26;100.00
39223;BME280;24936;46.328;11.026;2024-03-23T06:42:04;93839.19;;;6.43;100.00
39223;BME280;24936;46.328;11.026;2024-03-23T06:44:32;93838.41;;;6.53;100.00
39223;BME280;24936;46.328;11.026;2024-03-23T06:46:58;93842.88;;;6.72;100.00
39223;BME280;24936;46.328;11.026;2024-03-23T06:49:23;93841.06;;;6.94;100.00
39223;BME280;24936;46.328;11.026;2024-03-23T06:51:49;93838.19;;;7.07;100.00
39223;BME280;24936;46.328;11.026;2024-03-23T06:54:16;93843.06;;;6.80;100.00
39223;BME280;24936;46.328;11.026;2024-03-23T06:56:43;93847.09;;;6.94;100.00
39223;BME280;24936;46.328;11.026;2024-03-23T06:59:08;93841.00;;;7.44;100.00
39223;BME280;24936;46.328;11.026;2024-03-23T07:01:34;93838.53;;;7.53;100.00
39223;BME280;24936;46.328;11.026;2024-03-23T07:04:00;93848.63;;;7.57;100.00
39223;BME280;24936;46.328;11.026;2024-03-23T07:06:25;93843.38;;;7.57;100.00
39223;BME280;24936;46.328;11.026;2024-03-23T07:08:52;93843.91;;;7.80;100.00
39223;BME280;24936;46.328;11.026;2024-03-23T07:11:21;93835.50;;;7.77;100.00
39223;BME280;24936;46.328;11.026;2024-03-23T07:13:49;93831.94;;;7.58;100.00
39223;BME280;24936;46.328;11.026;2024-03-23T07:16:18;93836.19;;;7.59;100.00
39223;BME280;24936;46.328;11.026;2024-03-23T07:18:50;93832.19;;;7.45;100.00
39223;BME280;24936;46.328;11.026;2024-03-23T07:21:15;93829.72;;;7.34;100.00
39223;BME280;24936;46.328;11.026;2024-03-23T07:23:44;93828.06;;;7.43;100.00
39223;BME280;24936;46.328;11.026;2024-03-23T07:26:12;93827.22;;;7.32;100.00
39223;BME280;24936;46.328;11.026;2024-03-23T07:28:38;93816.41;;;6.96;100.00
39223;BME280;24936;46.328;11.026;2024-03-23T07:31:12;93818.94;;;6.77;100.00
39223;BME280;24936;46.328;11.026;2024-03-23T07:33:42;93809.88;;;6.81;100.00
39223;BME280;24936;46.328;11.026;2024-03-23T07:36:08;93802.19;;;6.79;100.00
39223;BME280;24936;46.328;11.026;2024-03-23T07:38:34;93799.44;;;6.91;100.00
39223;BME280;24936;46.328;11.026;2024-03-23T07:41:06;93791.47;;;6.92;100.00
39223;BME280;24936;46.328;11.026;2024-03-23T07:43:32;93790.38;;;7.04;100.00
39223;BME280;24936;46.328;11.026;2024-03-23T07:45:58;93798.81;;;7.18;100.00
39223;BME280;24936;46.328;11.026;2024-03-23T07:48:24;93795.53;;;7.35;100.00
39223;BME280;24936;46.328;11.026;2024-03-23T07:51:07;93793.47;;;7.49;100.00
39223;BME280;24936;46.328;11.026;2024-03-23T07:53:33;93789.91;;;7.70;100.00
39223;BME280;24936;46.328;11.026;2024-03-23T07:56:01;93783.81;;;7.59;100.00
39223;BME280;24936;46.328;11.026;2024-03-23T07:58:27;93778.03;;;7.75;100.00
39223;BME280;24936;46.328;11.026;2024-03-23T08:00:53;93782.56;;;7.83;100.00
39223;BME280;24936;46.328;11.026;2024-03-23T08:03:19;93781.31;;;7.87;100.00
39223;BME280;24936;46.328;11.026;2024-03-23T08:05:44;93783.81;;;7.99;100.00
39223;BME280;24936;46.328;11.026;2024-03-23T08:08:10;93774.00;;;8.58;100.00
39223;BME280;24936;46.328;11.026;2024-03-23T08:10:37;93763.84;;;8.73;100.00
39223;BME280;24936;46.328;11.026;2024-03-23T08:13:02;93763.59;;;8.29;100.00
39223;BME280;24936;46.328;11.026;2024-03-23T08:15:30;93758.03;;;8.32;100.00
39223;BME280;24936;46.328;11.026;2024-03-23T08:17:57;93750.06;;;8.33;100.00
39223;BME280;24936;46.328;11.026;2024-03-23T08:20:23;93746.06;;;8.29;100.00
39223;BME280;24936;46.328;11.026;2024-03-23T08:22:48;93744.88;;;8.04;100.00
39223;BME280;24936;46.328;11.026;2024-03-23T08:25:14;93742.50;;;8.20;100.00
39223;BME280;24936;46.328;11.026;2024-03-23T08:27:39;93722.56;;;8.37;100.00
39223;BME280;24936;46.328;11.026;2024-03-23T08:30:05;93724.88;;;8.50;100.00
39223;BME280;24936;46.328;11.026;2024-03-23T08:32:30;93726.34;;;8.63;100.00
39223;BME280;24936;46.328;11.026;2024-03-23T08:34:56;93713.47;;;8.69;100.00
39223;BME280;24936;46.328;11.026;2024-03-23T08:37:21;93707.22;;;9.16;100.00
39223;BME280;24936;46.328;11.026;2024-03-23T08:39:46;93711.97;;;9.31;100.00
39223;BME280;24936;46.328;11.026;2024-03-23T08:42:12;93707.13;;;9.62;100.00
39223;BME280;24936;46.328;11.026;2024-03-23T08:44:37;93719.00;;;9.48;100.00
39223;BME280;24936;46.328;11.026;2024-03-23T08:47:03;93706.78;;;9.84;100.00
39223;BME280;24936;46.328;11.026;2024-03-23T08:49:28;93710.88;;;10.04;100.00
39223;BME280;24936;46.328;11.026;2024-03-23T08:51:53;93694.84;;;10.42;100.00
39223;BME280;24936;46.328;11.026;2024-03-23T08:54:19;93700.75;;;10.79;100.00
39223;BME280;24936;46.328;11.026;2024-03-23T08:56:46;93697.53;;;11.26;100.00
39223;BME280;24936;46.328;11.026;2024-03-23T08:59:11;93704.13;;;12.30;100.00
39223;BME280;24936;46.328;11.026;2024-03-23T09:01:36;93700.84;;;12.11;100.00
39223;BME280;24936;46.328;11.026;2024-03-23T09:04:03;93696.56;;;12.10;100.00
39223;BME280;24936;46.328;11.026;2024-03-23T09:06:29;93697.84;;;12.22;100.00
39223;BME280;24936;46.328;11.026;2024-03-23T09:08:54;93706.47;;;13.82;100.00
39223;BME280;24936;46.328;11.026;2024-03-23T09:11:20;93708.78;;;13.62;100.00
39223;BME280;24936;46.328;11.026;2024-03-23T09:13:45;93694.91;;;14.96;100.00
39223;BME280;24936;46.328;11.026;2024-03-23T09:16:10;93699.28;;;14.89;100.00
39223;BME280;24936;46.328;11.026;2024-03-23T09:18:36;93700.38;;;14.50;100.00
39223;BME280;24936;46.328;11.026;2024-03-23T09:21:12;93698.81;;;14.26;100.00
39223;BME280;24936;46.328;11.026;2024-03-23T09:23:43;93696.84;;;16.11;100.00
39223;BME280;24936;46.328;11.026;2024-03-23T09:26:08;93688.13;;;15.09;100.00
39223;BME280;24936;46.328;11.026;2024-03-23T09:28:34;93685.84;;;14.91;100.00
39223;BME280;24936;46.328;11.026;2024-03-23T09:31:07;93680.06;;;16.04;100.00
39223;BME280;24936;46.328;11.026;2024-03-23T09:33:33;93685.50;;;15.52;100.00
39223;BME280;24936;46.328;11.026;2024-03-23T09:36:06;93685.56;;;16.31;100.00
39223;BME280;24936;46.328;11.026;2024-03-23T09:38:31;93678.31;;;15.89;100.00
39223;BME280;24936;46.328;11.026;2024-03-23T09:40:57;93670.63;;;15.95;100.00
39223;BME280;24936;46.328;11.026;2024-03-23T09:43:23;93665.06;;;16.53;100.00
39223;BME280;24936;46.328;11.026;2024-03-23T09:45:49;93664.31;;;17.01;100.00
39223;BME280;24936;46.328;11.026;2024-03-23T09:48:15;93653.75;;;17.28;100.00
39223;BME280;24936;46.328;11.026;2024-03-23T09:50:42;93642.75;;;17.45;100.00
39223;BME280;24936;46.328;11.026;2024-03-23T09:53:08;93656.50;;;17.95;100.00
39223;BME280;24936;46.328;11.026;2024-03-23T09:55:34;93650.16;;;18.10;100.00
39223;BME280;24936;46.328;11.026;2024-03-23T09:58:03;93639.72;;;17.75;100.00
39223;BME280;24936;46.328;11.026;2024-03-23T10:00:30;93639.84;;;16.71;100.00
39223;BME280;24936;46.328;11.026;2024-03-23T10:02:56;93632.09;;;16.05;100.00
39223;BME280;24936;46.328;11.026;2024-03-23T10:05:26;93625.91;;;17.17;100.00
39223;BME280;24936;46.328;11.026;2024-03-23T10:07:52;93631.25;;;17.37;100.00
39223;BME280;24936;46.328;11.026;2024-03-23T10:10:18;93618.59;;;15.79;100.00
39223;BME280;24936;46.328;11.026;2024-03-23T10:12:45;93610.66;;;16.42;100.00
39223;BME280;24936;46.328;11.026;2024-03-23T10:15:24;93606.25;;;17.05;100.00
39223;BME280;24936;46.328;11.026;2024-03-23T10:17:50;93587.22;;;16.52;100.00
39223;BME280;24936;46.328;11.026;2024-03-23T10:20:19;93570.09;;;17.37;100.00
39223;BME280;24936;46.328;11.026;2024-03-23T10:22:48;93573.84;;;18.56;100.00
39223;BME280;24936;46.328;11.026;2024-03-23T10:25:14;93573.78;;;17.83;100.00
39223;BME280;24936;46.328;11.026;2024-03-23T10:27:39;93557.78;;;16.41;100.00
39223;BME280;24936;46.328;11.026;2024-03-23T10:30:14;93551.91;;;17.61;100.00
39223;BME280;24936;46.328;11.026;2024-03-23T10:32:40;93544.72;;;18.09;100.00
39223;BME280;24936;46.328;11.026;2024-03-23T10:35:20;93541.25;;;17.81;100.00
39223;BME280;24936;46.328;11.026;2024-03-23T10:37:47;93546.06;;;18.84;100.00
39223;BME280;24936;46.328;11.026;2024-03-23T10:40:15;93543.28;;;17.05;100.00
39223;BME280;24936;46.328;11.026;2024-03-23T10:42:41;93522.09;;;16.63;100.00
39223;BME280;24936;46.328;11.026;2024-03-23T10:45:07;93521.97;;;16.78;100.00
39223;BME280;24936;46.328;11.026;2024-03-23T10:47:37;93508.75;;;17.66;100.00
39223;BME280;24936;46.328;11.026;2024-03-23T10:50:06;93520.50;;;16.82;100.00
39223;BME280;24936;46.328;11.026;2024-03-23T10:52:33;93499.13;;;17.58;100.00
39223;BME280;24936;46.328;11.026;2024-03-23T10:54:59;93488.63;;;17.83;100.00
39223;BME280;24936;46.328;11.026;2024-03-23T11:00:10;93484.03;;;18.70;100.00
39223;BME280;24936;46.328;11.026;2024-03-23T11:02:36;93475.94;;;18.51;100.00
39223;BME280;24936;46.328;11.026;2024-03-23T11:05:01;93471.19;;;18.99;100.00
39223;BME280;24936;46.328;11.026;2024-03-23T11:09:54;93450.78;;;16.60;100.00
39223;BME280;24936;46.328;11.026;2024-03-23T11:14:45;93444.47;;;17.76;100.00
39223;BME280;24936;46.328;11.026;2024-03-23T11:17:11;93430.44;;;18.14;100.00
39223;BME280;24936;46.328;11.026;2024-03-23T11:19:37;93433.94;;;18.08;100.00
39223;BME280;24936;46.328;11.026;2024-03-23T11:22:03;93425.28;;;18.19;100.00
39223;BME280;24936;46.328;11.026;2024-03-23T11:24:29;93417.63;;;18.36;100.00
39223;BME280;24936;46.328;11.026;2024-03-23T11:26:54;93407.63;;;18.63;100.00
39223;BME280;24936;46.328;11.026;2024-03-23T11:29:20;93399.44;;;18.26;100.00
39223;BME280;24936;46.328;11.026;2024-03-23T11:31:48;93397.06;;;19.33;100.00
39223;BME280;24936;46.328;11.026;2024-03-23T11:34:21;93384.06;;;19.80;100.00
39223;BME280;24936;46.328;11.026;2024-03-23T11:36:47;93389.28;;;20.43;95.88
39223;BME280;24936;46.328;11.026;2024-03-23T11:39:19;93371.06;;;21.89;87.02
39223;BME280;24936;46.328;11.026;2024-03-23T11:41:52;93360.88;;;20.72;92.88
39223;BME280;24936;46.328;11.026;2024-03-23T11:44:27;93357.41;;;19.18;100.00
39223;BME280;24936;46.328;11.026;2024-03-23T11:46:53;93343.78;;;18.18;100.00
39223;BME280;24936;46.328;11.026;2024-03-23T11:49:26;93338.69;;;18.48;100.00
39223;BME280;24936;46.328;11.026;2024-03-23T11:51:52;93336.63;;;19.27;100.00
39223;BME280;24936;46.328;11.026;2024-03-23T11:54:25;93335.88;;;19.38;100.00
39223;BME280;24936;46.328;11.026;2024-03-23T11:57:00;93322.41;;;19.70;90.66
39223;BME280;24936;46.328;11.026;2024-03-23T12:01:59;93274.25;;;17.03;100.00
39223;BME280;24936;46.328;11.026;2024-03-23T12:04:29;93263.69;;;16.49;100.00
39223;BME280;24936;46.328;11.026;2024-03-23T12:09:35;93260.16;;;15.26;100.00
39223;BME280;24936;46.328;11.026;2024-03-23T12:12:14;93241.00;;;15.24;100.00
39223;BME280;24936;46.328;11.026;2024-03-23T12:14:41;93238.56;;;15.29;100.00
39223;BME280;24936;46.328;11.026;2024-03-23T12:17:11;93231.50;;;14.95;100.00
39223;BME280;24936;46.328;11.026;2024-03-23T12:19:37;93221.03;;;14.51;100.00
39223;BME280;24936;46.328;11.026;2024-03-23T12:22:06;93207.63;;;14.88;100.00
39223;BME280;24936;46.328;11.026;2024-03-23T12:24:32;93211.66;;;15.33;100.00
39223;BME280;24936;46.328;11.026;2024-03-23T12:27:04;93206.03;;;15.63;100.00
39223;BME280;24936;46.328;11.026;2024-03-23T12:29:32;93207.94;;;16.02;100.00
39223;BME280;24936;46.328;11.026;2024-03-23T12:32:02;93193.06;;;15.95;100.00
39223;BME280;24936;46.328;11.026;2024-03-23T12:34:29;93197.13;;;15.90;100.00
39223;BME280;24936;46.328;11.026;2024-03-23T12:36:55;93192.38;;;15.66;100.00
39223;BME280;24936;46.328;11.026;2024-03-23T12:39:21;93178.59;;;15.15;100.00
39223;BME280;24936;46.328;11.026;2024-03-23T12:41:47;93167.81;;;15.23;100.00
39223;BME280;24936;46.328;11.026;2024-03-23T12:44:13;93157.69;;;15.54;100.00
39223;BME280;24936;46.328;11.026;2024-03-23T12:46:39;93155.94;;;15.06;100.00
39223;BME280;24936;46.328;11.026;2024-03-23T12:49:05;93146.63;;;15.23;100.00
39223;BME280;24936;46.328;11.026;2024-03-23T12:51:31;93141.09;;;15.11;100.00
39223;BME280;24936;46.328;11.026;2024-03-23T12:53:57;93125.25;;;14.70;100.00
39223;BME280;24936;46.328;11.026;2024-03-23T12:56:22;93138.34;;;14.49;100.00
39223;BME280;24936;46.328;11.026;2024-03-23T12:58:47;93121.91;;;14.54;100.00
39223;BME280;24936;46.328;11.026;2024-03-23T13:01:16;93121.19;;;14.32;100.00
39223;BME280;24936;46.328;11.026;2024-03-23T13:03:42;93115.06;;;14.31;100.00
39223;BME280;24936;46.328;11.026;2024-03-23T13:06:10;93115.41;;;14.21;100.00
39223;BME280;24936;46.328;11.026;2024-03-23T13:08:35;93111.78;;;14.29;100.00
39223;BME280;24936;46.328;11.026;2024-03-23T13:11:00;93092.53;;;14.42;100.00
39223;BME280;24936;46.328;11.026;2024-03-23T13:13:26;93097.56;;;14.37;100.00
39223;BME280;24936;46.328;11.026;2024-03-23T13:15:51;93088.88;;;14.43;100.00
39223;BME280;24936;46.328;11.026;2024-03-23T13:18:17;93082.16;;;14.41;100.00
39223;BME280;24936;46.328;11.026;2024-03-23T13:20:42;93076.44;;;14.02;100.00
39223;BME280;24936;46.328;11.026;2024-03-23T13:23:07;93078.81;;;13.90;100.00
39223;BME280;24936;46.328;11.026;2024-03-23T13:25:33;93071.25;;;13.87;100.00
39223;BME280;24936;46.328;11.026;2024-03-23T13:27:59;93073.84;;;13.80;100.00
39223;BME280;24936;46.328;11.026;2024-03-23T13:30:24;93072.59;;;13.69;100.00
39223;BME280;24936;46.328;11.026;2024-03-23T13:32:50;93066.13;;;13.50;100.00
39223;BME280;24936;46.328;11.026;2024-03-23T13:35:15;93060.22;;;13.48;100.00
39223;BME280;24936;46.328;11.026;2024-03-23T13:37:41;93054.88;;;13.41;100.00
39223;BME280;24936;46.328;11.026;2024-03-23T13:40:07;93062.16;;;13.39;100.00
39223;BME280;24936;46.328;11.026;2024-03-23T13:42:33;93063.09;;;13.82;100.00
39223;BME280;24936;46.328;11.026;2024-03-23T13:44:58;93061.63;;;13.79;100.00
39223;BME280;24936;46.328;11.026;2024-03-23T13:47:24;93053.31;;;13.82;100.00
39223;BME280;24936;46.328;11.026;2024-03-23T13:49:49;93058.94;;;13.72;100.00